Siberia, Indiana
Current Conditions -  °F | °C
As of 3:55 AM on Sunday 21 Dec 2014 (Local Time) from KHNB Reporting Station
Clear Clear  
Wind Chill: 23°   Ceiling: Unl
Heat Index: 23°   Visibility: 3mi
Dew Point: 19°   Wind: 3mph
Humidity: 86%   Direction: 50°NE
Pressure: 30.28"   Gusts: NA
Location:  38.1675°N, 86.7159°W
Report Text: KHNB 210955Z AUTO 05003KT 3SM CLR M05/M07 A3028 RMK AO1
Loading
Personal Weather Stations






























Interactive Weather Map New forecast layout! Learn more

10-Day Weather Forecast

Advertisements
Track Severe Weather on mobile